ACT        NSW        VIC        QLD        SA        WA        TAS        NT        INFO        CALC            by VK5ZD

Past Date/Time: (dd/mm/yyyy hh:mm or blank for current data)    

  Atmospheric Gas Attenuation - ITU Rec 676-11   --------------- dB/100km ---------------
WA Stations Date Time Temp RH % AH g/m3 Dew Point Wind Direction Speed kph Gust kph Barometer mB Rainfall Since 9am 24GHz 47GHz 76GHz 122GHz 134GHz 241GHz
Albany Airport 04/09 21:10 11.5 63 6.51 4.7 17 20 1020.5 0 15.2 23.5 32.9 86.0 74.4 254.2
Badgingarra 04/09 21:10 8.2 90 7.54 6.6 7 7 1013.1 0 17.6 25.8 38.2 100.2 91.0 311.8
Barimunya 04/09 21:10 24.3 25 5.53 3 11 15 1013.1 0 12.7 19.0 24.9 64.6 52.9 179.9
Barrow Island 04/09 21:10 22.7 68 13.74 16.5 24 28 1018.1 0 30.0 31.7 55.9 147.4 154.0 534.0
Bickley 04/09 21:10 11.9 72 7.63 7 13 20 1013.1 0 17.6 24.9 36.8 96.5 87.9 301.5
Boolgeeda 04/09 21:10 21.5 23 4.34 -0.5 4 7 1018.2 0 10.3 18.2 22.1 57.2 42.6 143.3
Bridgetown 04/09 21:10 11.3 76 7.75 7.2 2 6 1021.1 0 17.9 25.5 37.9 99.4 90.8 311.4
Broome 04/09 21:10 24.4 84 18.69 21.5 9 13 1017.6 0.2 40.3 39.9 76.6 202.6 222.4 772.5
Bulga Downs 04/09 09:00 15.1 78 10.06 11.3 6 1008.7 0 22.7 27.7 44.8 118.0 115.8 399.5
Bunbury 04/09 21:10 14.2 60 7.33 6.6 6 9 1021.6 0.2 16.9 24.1 35.0 91.5 82.2 281.7
Busselton Airport 04/09 21:10 13.2 71 8.15 8.1 7 9 1021.2 0 18.6 25.6 38.6 101.2 93.8 322.4
Cape Leeuwin 04/09 21:10 14.5 67 8.33 8.5 19 24 1020.6 0 19.0 25.5 38.7 101.4 94.6 325.1
Cape Naturaliste 04/09 21:10 13 66 7.49 6.8 11 15 1021.2 0.2 17.3 24.6 36.1 94.5 85.5 293.0
Carnarvon 04/09 21:10 19.2 79 13.03 15.5 20 26 1022.3 0 28.7 32.0 55.5 146.4 151.5 524.8
Christmas Creek 04/09 21:10 25.8 42 10.11 11.9 13 17 1017.2 0.2 22.2 25.0 39.8 104.5 102.3 353.6
Christmas Island 04/09 21:10 23.7 85 18.18 21 22 32 1017.8 0 39.3 39.3 74.9 198.0 216.6 752.2
Collie East 04/09 21:10 10.8 79 7.81 7.3 0 0 1013.1 0 18.0 25.5 38.1 99.8 91.6 314.2
Coondewanna 04/09 21:10 18.5 30 4.75 0.6 6 9 1013.1 0 11.3 19.1 24.1 62.5 48.3 163.1
Corrigin 04/09 09:00 13 66 7.49 6.9 15 1016 2 17.3 24.5 35.9 94.0 85.1 291.8
Cunderdin Airport 04/09 21:10 10.5 79 7.66 7 13 13 1022.4 0.2 17.7 25.7 38.0 99.5 90.6 310.7
Curtin 04/09 21:10 23.8 70 15.06 18 9 11 1016.1 0 32.7 33.5 60.6 160.0 170.0 589.7
Cygnet Bay 04/09 09:00 28.1 68 18.6 21.7 1017.9 0 39.8 38.1 72.6 192.0 210.5 731.4
Dalwallinu 04/09 21:10 11.1 84 8.46 8.5 9 13 1022.4 0.4 19.4 26.8 41.0 107.5 100.7 346.2
Derby 04/09 21:10 24.7 73 16.52 19.5 11 15 1016.9 0 35.7 35.8 66.3 175.2 188.9 655.9
Donnybrook 04/09 09:00 12.5 94 10.34 11.6 19 1013.1 5 23.4 29.2 47.8 125.8 124.2 428.6
Dwellingup 04/09 21:10 11.7 72 7.53 6.8 9 13 1022 0.2 17.4 25.1 36.9 96.6 87.5 299.9
Eliwana Airport 04/09 21:10 24.1 18 3.94 -1.7 11 17 1013.1 0 9.4 17.0 20.1 52.0 37.2 124.7
Esperance 04/09 21:10 13.6 62 7.3 6.5 15 24 1019.9 0.4 16.8 24.1 35.1 91.7 82.3 282.0
Esperance Airport 04/09 21:10 10.4 78 7.52 6.7 15 17 1020.3 0 17.4 25.4 37.4 97.9 88.7 304.0
Eucla 04/09 21:10 14.2 75 9.16 9.8 17 33 1017.7 0 20.8 26.9 42.1 110.4 105.7 364.1
Fitzroy Crossing 04/09 21:10 26.5 27 6.76 6 7 9 1015.1 0 15.2 20.1 28.1 73.3 64.1 219.7
Forrest 04/09 21:10 15.1 64 8.26 8.3 1018.3 0 18.8 25.2 38.0 99.7 92.8 318.9
Fortescue Dave Forrest 04/09 21:10 27.4 26 6.84 6.2 4 11 1016.7 0 15.3 20.1 28.1 73.3 64.3 220.6
Garden Island 04/09 21:10 15.9 60 8.13 8.2 17 24 1022.1 0 18.5 24.9 37.3 97.7 90.5 310.9
Geraldton Airport 04/09 21:10 12.6 90 9.96 11 13 13 1022.7 0.2 22.6 28.9 46.6 122.4 119.6 412.2
Gerangamete (Cfa) 04/09 23:00 12.3 94 10.21 11.3 17 19 1013.1 1.8 23.1 29.1 47.4 124.6 122.7 423.2
Giles* 04/09 22:50 24.8 35 7.97 8.3 13 17 1017.8 0 17.8 22.2 32.8 85.7 78.8 271.2
Gingin Airport 04/09 21:10 14.8 70 8.87 9.4 7 15 1022.5 0 20.1 26.4 40.8 107.0 101.4 349.2
Golden Grove 04/09 21:10 14.7 58 7.3 6.5 15 20 1013.1 0 16.8 23.6 34.3 89.8 80.7 276.6
Gooseberry Hill 04/09 21:10 13.4 73 8.49 8.7 11 15 1013.1 0 19.4 25.8 39.5 103.8 97.4 335.1
Gudai-Darri Mine 04/09 21:10 26.9 22 5.63 3.4 15 20 1013.1 0 12.8 18.6 24.4 63.5 52.2 178.0
Halls Creek 04/09 22:50 25 37 8.52 9.3 2 2 1015.6 0 18.9 22.9 34.5 90.3 84.7 291.7
Hopetoun North 04/09 21:10 13.2 61 7 5.9 22 32 1020.3 0.2 16.2 23.8 34.1 89.1 79.0 270.2
Iron Bridge Mine 04/09 21:10 24.8 36 8.19 8.7 11 15 1013.1 0 18.2 22.4 33.3 87.3 81.0 278.8
Jacup 04/09 21:10 5.1 82 5.61 2.3 2 6 1020.7 0.6 13.5 23.7 32.0 83.4 68.7 233.0
Jandakot 04/09 21:10 15.2 60 7.79 7.5 11 13 1022 0 17.8 24.5 36.3 95.1 86.9 298.5
Jarrahwood 04/09 09:00 14 78 9.41 10.2 11 1013.1 6 21.3 27.2 43.0 113.0 109.0 375.5
Kalgoorlie-Boulder 04/09 21:10 13.7 56 6.63 5.1 11 15 1020.3 0 15.4 23.1 32.5 84.9 73.9 252.4
Kalumburu 04/09 22:50 22.8 80 16.25 19.2 0 0 1017.5 0 35.3 36.1 66.8 176.4 189.8 658.6
Karijini North 04/09 21:10 26.7 19 4.81 1.2 26 35 1016.6 0 11.2 17.7 22.1 57.4 44.5 150.5
Karnet 04/09 09:00 13.9 64 7.67 7.3 9 1013.1 10 17.6 24.4 36.1 94.5 86.2 295.8
Karratha 04/09 21:10 23.9 72 15.58 18.5 26 33 1017.5 0 33.8 34.4 62.8 166.0 177.3 615.4
Katanning Rs 04/09 21:10 8.4 77 6.53 4.6 6 7 1021.1 0.4 15.4 24.4 34.3 89.7 77.8 265.4
Kellerberrin 04/09 09:00 13 100 11.34 13 4 1013.1 1 25.5 30.8 51.9 136.7 137.9 476.3
Koolan Island / Koolan Central 04/09 21:10 25.1 72 16.67 19.7 24 30 1013.1 0 36.0 35.7 66.4 175.5 189.6 658.2
Kununurra Airport 04/09 22:50 24.1 65 14.22 17.1 4 6 1016.2 0 30.9 32.0 56.8 149.8 157.6 546.7
Lake Grace 04/09 21:10 10.5 78 7.57 6.8 4 6 1021.1 0.2 17.5 25.5 37.6 98.4 89.3 306.2
Lancelin (Defence) 04/09 21:10 17.1 60 8.73 9.3 9 15 1022.1 0 19.7 25.5 39.1 102.4 96.7 332.8
Laverton 04/09 21:10 17 53 7.67 7.4 13 15 1020.3 0 17.5 23.8 35.0 91.6 83.4 286.2
Learmonth 04/09 21:10 20.1 78 13.56 16.1 30 41 1020.3 0 29.8 32.5 57.1 150.6 157.1 544.2
Legendre Island 04/09 21:10 23.1 75 15.5 18.4 32 37 1017.8 0 33.7 34.6 63.2 166.8 178.1 617.9
Leinster 04/09 21:10 16.6 46 6.5 4.9 9 11 1019.8 0 15.0 22.2 30.9 80.6 69.7 238.0
Leonora Airport 04/09 21:10 15.8 52 7 6 9 11 1020.1 0 16.1 23.1 33.0 86.3 76.4 261.6
Lombadina 04/09 21:10 24.4 87 19.36 22.1 11 17 1013.1 0 41.8 41.0 79.5 210.4 232.2 806.5
Mandora 04/09 21:10 22.7 80 16.16 19.1 13 17 1017.1 0 35.1 36.0 66.4 175.5 188.6 654.6
Mandurah 04/09 21:10 15.7 58 7.76 7.5 9 15 1021.9 0 17.7 24.4 36.0 94.2 86.0 295.3
Manjimup 04/09 21:10 10.5 77 7.47 6.6 7 11 1020.9 0 17.3 25.3 37.2 97.3 88.0 301.5
Marble Bar 04/09 21:10 28.5 23 6.43 5.4 4 7 1016.6 0 14.4 19.3 26.5 69.0 59.3 203.1
Mardie 04/09 21:10 21.7 79 15.07 17.9 9 11 1017.7 0 32.9 34.4 62.4 164.7 175.1 607.3
Meekatharra 04/09 21:10 18.4 49 7.71 7.5 13 19 1020.7 0 17.5 23.5 34.6 90.5 82.4 283.1
Millendon (Swan Valley) 04/09 21:10 13.8 81 9.65 10.7 0 0 1022.1 0 21.8 28.0 44.5 116.9 113.3 390.7
Morawa Airport 04/09 21:10 12.9 68 7.66 7.1 9 15 1022.9 0 17.6 25.0 36.9 96.6 87.9 301.5
Mount Barker 04/09 09:00 11.5 65 6.71 5.1 19 1013.1 0.8 15.7 23.5 33.4 87.4 76.5 261.4
Mount Keith 04/09 21:10 17.2 47 6.88 5.8 15 15 1013.1 0 15.8 22.3 31.8 83.0 73.2 250.6
Mount Magnet Airport 04/09 21:10 15.4 57 7.49 6.9 9 11 1021.3 0 17.1 24.0 35.1 91.7 82.9 284.4
Mullewa 04/09 09:00 14.3 100 12.29 14.3 0 1013.1 0.9 27.5 32.1 55.3 145.7 149.4 516.9
Munglinup West 04/09 21:10 7.9 86 7.07 5.7 6 9 1020.7 0.2 16.6 25.4 36.7 96.1 85.5 292.4
Murchison 04/09 09:00 15.9 84 11.38 13.2 15 1021 0 25.4 30.2 50.6 133.1 134.1 463.4
Narrogin 04/09 09:00 14.5 68 8.46 8.7 19 1013.1 2 19.3 25.5 38.9 102.0 95.7 329.1
Newdegate 04/09 21:10 9.1 80 7.1 5.8 6 6 1020.7 0.2 16.6 25.1 36.3 95.0 84.6 289.4
Newman Airport 04/09 21:10 23 25 5.14 1.9 13 15 1017.6 0 11.9 18.9 24.2 62.7 49.9 169.2
Norseman Airport 04/09 21:10 10.5 63 6.11 3.8 6 9 1020.4 0 14.4 23.1 31.8 83.0 70.3 239.5
North Island 04/09 21:10 17.6 57 8.55 9 11 13 1023.1 0 19.3 25.1 38.2 100.0 93.9 323.0
Ongerup 04/09 09:00 10.1 88 8.32 8.3 20 1012.4 0.5 19.2 26.5 40.5 106.3 99.3 341.1
Onslow Airport 04/09 21:10 23.1 38 7.85 8 20 26 1019.2 0 17.6 22.5 33.1 86.5 79.2 272.4
Paraburdoo 04/09 21:10 23.5 18 3.81 -2.2 11 15 1017.8 0 9.2 17.1 20.0 51.7 36.4 121.6
Pardoo 04/09 09:00 27 76 19.56 22.4 13 1017.5 0 41.9 40.3 78.0 206.5 228.0 792.1
Pearce 04/09 21:10 14 77 9.29 10 7 11 1022.1 0 21.0 27.3 42.9 112.6 108.1 372.5
Perth 04/09 21:10 15.6 58 7.71 7.4 6 11 1022.3 0.2 17.6 24.3 35.9 93.8 85.5 293.5
Perth Airport 04/09 21:10 15.8 57 7.67 7.3 17 24 1021.8 0.2 17.5 24.2 35.6 93.1 84.8 290.9
Port Hedland 04/09 21:10 21.6 70 13.28 15.9 13 15 1017.2 0 29.1 31.3 54.7 144.1 149.7 518.9
Portable Btsa (Dfes) 04/09 21:00 17.6 63 9.45 10.5 11 13 1013.1 0 21.2 26.1 41.2 108.3 104.5 360.5
Portable Btsd (Dfes) 04/09 21:00 10.9 67 6.67 5 13 13 1013.1 0 15.6 23.6 33.5 87.6 76.6 261.6
Portable Btsf (Dfes) 04/09 21:00 18.4 44 6.92 5.9 11 13 1013.1 0 15.8 22.1 31.4 82.2 72.6 248.5
Portable Btsh (Dfes) 04/09 21:00 14 55 6.63 5.1 17 20 1013.1 0 15.4 22.8 32.1 83.9 73.1 250.0
Portable Btsj (Dfes) 04/09 21:00 14.3 77 9.46 10.3 4 6 1013.1 0 21.4 27.1 43.0 113.1 109.2 376.4
Portable Btsl (Dfes) 04/09 21:00 11.9 53 5.61 2.6 17 20 1013.1 0 13.3 21.8 29.1 76.0 62.5 212.5
Portable Btsm (Dfes) 04/09 21:00 18.8 25 4.03 -1.5 4 4 1013.1 0 9.8 18.1 21.7 56.1 40.5 136.0
Portable Btsn (Dfes) 04/09 21:00 14 62 7.48 7 2 4 1013.1 0 17.2 24.1 35.3 92.5 83.7 287.0
Portable Btso (Dfes) 04/09 21:00 11.5 68 7.02 5.9 4 6 1013.1 0 16.3 24.0 34.6 90.6 80.4 275.3
Rocky Gully South 04/09 21:10 10.3 69 6.61 4.9 9 15 1013.1 0 15.5 23.7 33.5 87.7 76.4 260.9
Roebourne Airport 04/09 21:10 23.2 68 14.14 17 20 26 1017.5 0 30.8 32.2 57.2 150.8 158.5 549.7
Rottnest Island 04/09 21:10 15.4 58 7.62 7.2 17 24 1022.1 0 17.4 24.2 35.6 93.1 84.6 290.2
Salmon Gums Rs 04/09 21:10 8.3 86 7.25 6.1 7 9 1013.1 0 16.9 25.3 37.0 96.9 86.9 297.6
Shannon 04/09 21:10 10.3 86 8.24 8.1 6 7 1013.1 0 19.0 26.3 40.1 105.2 98.0 336.6
Shark Bay Airport 04/09 21:10 16.6 83 11.72 13.7 17 20 1022 0 26.1 30.6 51.6 135.9 137.8 476.4
Solomon Airport 04/09 21:10 22.3 20 3.95 -1.7 9 13 1018 0 9.5 17.5 20.7 53.5 38.3 128.3
Southern Cross Airport 04/09 21:10 10.5 77 7.47 6.6 9 9 1021.4 0.2 17.3 25.3 37.2 97.4 88.0 301.6
Swanbourne 04/09 21:10 15.5 86 11.37 13.2 13 22 1013.1 0 25.4 30.0 50.4 132.7 133.8 462.5
Telfer 04/09 21:10 29.9 18 5.43 3 19 24 1015.4 0 12.3 17.8 23.1 59.9 48.6 165.4
Thevenard Island 04/09 21:10 22.2 77 15.12 18 30 41 1019 0 32.9 34.4 62.3 164.4 174.8 606.4
Troughton Island 04/09 22:50 25.3 82 19.2 22 11 11 1017.8 0 41.3 40.5 78.1 206.6 227.7 790.8
Truscott 04/09 22:50 22.8 88 17.88 20.7 2 6 1017.1 0 38.8 39.1 74.3 196.5 214.5 744.6
Wagin 04/09 09:00 14 78 9.41 10.2 15 1013.1 0.8 21.3 27.2 43.0 113.0 109.0 375.5
Walpole North 04/09 21:10 11 79 7.91 7.5 9 13 1020.1 0 18.2 25.8 38.7 101.4 93.2 319.9
Wandering 04/09 21:10 11.7 68 7.11 6 6 9 1013.1 0 16.5 24.1 34.9 91.3 81.4 278.7
Warburton 04/09 22:50 21.9 42 8.1 8.4 6 9 1018.3 0 18.2 23.1 34.4 90.1 83.3 286.4
West Angelas 04/09 21:10 21.5 25 4.71 0.7 6 7 1018.7 0 11.1 18.6 23.3 60.3 46.4 156.7
West Musgrave Airport 04/09 21:10 24.2 38 8.36 9 15 24 1013.1 0 18.6 22.7 34.1 89.5 83.5 287.6
Wiluna Airport 04/09 21:10 19 42 6.84 5.8 15 20 1020.2 0 15.6 22.1 31.2 81.4 71.5 244.9
Windy Harbour 04/09 09:00 13.5 61 7.14 6.1 19 1015.4 7 16.5 23.8 34.3 89.8 80.1 274.3
Witchcliffe West 04/09 21:10 12.5 72 7.92 7.6 11 13 1021.1 0 18.2 25.5 38.1 99.7 91.6 314.6
Wyndham Airport 04/09 22:50 27.8 55 14.79 17.9 13 17 1016.2 0 31.8 31.6 56.5 149.0 157.7 547.6
Yampi Sound (Defence) 04/09 21:10 26 75 18.26 21.2 13 20 1020.4 0 39.2 38.5 73.2 193.5 211.7 735.3

Last Refresh: 04-Sep-2026 22:56:03

Bureau of Meteorology